Time;durP1;ratioP1;P1;durP2;ratioP2;P2;SDS_P1;SDS_P2;PMS_P1;PMS_P2;Temp;Humidity;BMP_temperature;BMP_pressure;BME280_temperature;BME280_humidity;BME280_pressure;Samples;Min_cycle;Max_cycle;Signal;HPM_P1;HPM_P2
2020/12/10 00:01:05;;;;;;;33.05;12.43;;;;;;;-5.24;74.79;99931.44;1740135;82;21288;-66
2020/12/10 00:03:33;;;;;;;29.92;12.30;;;;;;;-5.25;74.84;99926.25;1740105;82;21152;-66
2020/12/10 00:06:01;;;;;;;27.32;13.15;;;;;;;-5.25;74.91;99933.80;1737504;82;21184;-66
2020/12/10 00:08:28;;;;;;;30.80;13.05;;;;;;;-5.25;74.94;99930.03;1736297;83;21307;-67
2020/12/10 00:10:57;;;;;;;28.38;13.35;;;;;;;-5.30;75.15;99926.22;1736169;83;21156;-66
2020/12/10 00:13:25;;;;;;;35.52;12.90;;;;;;;-5.33;75.21;99922.19;1736217;83;21161;-65
2020/12/10 00:15:53;;;;;;;26.57;11.70;;;;;;;-5.34;75.44;99918.80;1736346;83;21286;-66
2020/12/10 00:18:20;;;;;;;29.95;12.33;;;;;;;-5.31;75.31;99916.92;1736254;83;21169;-66
2020/12/10 00:20:48;;;;;;;24.25;11.65;;;;;;;-5.31;75.44;99914.41;1736078;83;21381;-66
2020/12/10 00:23:16;;;;;;;27.40;12.65;;;;;;;-5.32;75.47;99903.81;1736267;83;21142;-66
2020/12/10 00:25:43;;;;;;;32.45;13.10;;;;;;;-5.32;75.58;99905.95;1736271;83;21298;-66
2020/12/10 00:28:11;;;;;;;29.98;12.88;;;;;;;-5.36;75.70;99902.67;1736160;83;21125;-65
2020/12/10 00:30:38;;;;;;;28.80;13.70;;;;;;;-5.34;75.79;99901.53;1736086;83;21133;-65
2020/12/10 00:33:06;;;;;;;37.23;13.38;;;;;;;-5.35;75.93;99896.00;1736169;83;21279;-65
2020/12/10 00:35:33;;;;;;;27.45;14.18;;;;;;;-5.35;75.93;99897.27;1736108;83;21145;-66
2020/12/10 00:38:01;;;;;;;32.33;15.55;;;;;;;-5.38;76.03;99891.97;1736337;83;21169;-66
2020/12/10 00:40:29;;;;;;;28.77;13.98;;;;;;;-5.36;76.04;99900.54;1736100;83;21299;-66
2020/12/10 00:42:57;;;;;;;30.50;14.20;;;;;;;-5.38;76.08;99899.13;1736161;83;21572;-66
2020/12/10 00:45:24;;;;;;;30.45;12.58;;;;;;;-5.37;76.13;99906.30;1736061;83;21161;-66
2020/12/10 00:47:52;;;;;;;28.73;12.90;;;;;;;-5.42;76.18;99897.08;1736081;83;21156;-66
2020/12/10 00:50:21;;;;;;;27.95;12.35;;;;;;;-5.45;76.20;99895.18;1736079;83;21140;-66
2020/12/10 00:52:48;;;;;;;31.27;14.00;;;;;;;-5.47;76.28;99893.28;1736011;83;21287;-66
2020/12/10 00:55:16;;;;;;;26.85;13.35;;;;;;;-5.48;76.34;99893.66;1736119;83;21319;-66
2020/12/10 00:57:44;;;;;;;35.23;13.20;;;;;;;-5.46;76.39;99892.55;1736300;83;21176;-66
2020/12/10 01:00:13;;;;;;;29.40;13.78;;;;;;;-5.46;76.39;99880.85;1736058;83;21153;-66
2020/12/10 01:02:41;;;;;;;26.75;13.32;;;;;;;-5.50;76.46;99876.28;1736038;83;21157;-66
2020/12/10 01:05:10;;;;;;;29.77;15.03;;;;;;;-5.49;76.45;99870.91;1736823;82;21287;-66
2020/12/10 01:07:38;;;;;;;35.75;14.60;;;;;;;-5.52;76.54;99886.95;1740801;81;21185;-66
2020/12/10 01:10:07;;;;;;;37.85;16.17;;;;;;;-5.54;76.67;99881.81;1740549;82;21145;-66
2020/12/10 01:12:35;;;;;;;32.08;13.68;;;;;;;-5.55;76.73;99878.77;1740017;82;21177;-66
2020/12/10 01:15:04;;;;;;;31.82;14.43;;;;;;;-5.53;76.71;99878.92;1740338;82;21145;-66
2020/12/10 01:17:31;;;;;;;33.50;14.40;;;;;;;-5.53;76.63;99885.20;1740009;82;21157;-66
2020/12/10 01:19:59;;;;;;;31.70;13.35;;;;;;;-5.57;76.71;99882.80;1739914;81;21706;-66
2020/12/10 01:22:27;;;;;;;36.13;15.32;;;;;;;-5.55;76.67;99878.77;1740181;82;21137;-66
2020/12/10 01:24:57;;;;;;;31.23;13.60;;;;;;;-5.56;76.58;99894.62;1739891;82;21141;-66
2020/12/10 01:27:25;;;;;;;32.83;13.30;;;;;;;-5.55;76.53;99883.80;1739945;81;21200;-65
2020/12/10 01:29:53;;;;;;;29.15;14.58;;;;;;;-5.56;76.44;99871.98;1740028;81;21180;-65
2020/12/10 01:32:23;;;;;;;31.17;13.08;;;;;;;-5.56;76.48;99878.27;1740093;82;21283;-66
2020/12/10 01:34:52;;;;;;;35.35;14.38;;;;;;;-5.59;76.47;99874.62;1740354;81;21180;-65
2020/12/10 01:37:20;;;;;;;30.97;12.93;;;;;;;-5.61;76.62;99864.79;1740021;81;21161;-65
2020/12/10 01:39:48;;;;;;;30.70;13.80;;;;;;;-5.64;76.64;99869.17;1739962;82;21157;-66
2020/12/10 01:42:16;;;;;;;29.65;12.85;;;;;;;-5.70;76.70;99883.69;1740095;81;21145;-66
2020/12/10 01:44:45;;;;;;;27.22;13.15;;;;;;;-5.72;76.78;99863.47;1739954;81;21168;-65
2020/12/10 01:47:13;;;;;;;40.75;14.58;;;;;;;-5.70;76.72;99863.58;1740239;81;21562;-65
2020/12/10 01:49:41;;;;;;;23.57;11.55;;;;;;;-5.69;76.71;99858.70;1740289;82;21287;-66
2020/12/10 01:52:09;;;;;;;30.97;14.33;;;;;;;-5.68;76.57;99872.15;1740199;82;21168;-65
2020/12/10 01:54:37;;;;;;;25.95;11.75;;;;;;;-5.73;76.68;99873.38;1740351;82;21153;-65
2020/12/10 01:57:04;;;;;;;32.95;14.03;;;;;;;-5.75;76.63;99868.57;1740362;82;21153;-65
2020/12/10 01:59:33;;;;;;;29.92;13.78;;;;;;;-5.78;76.65;99870.82;1740342;82;21144;-65
2020/12/10 02:02:00;;;;;;;23.42;11.15;;;;;;;-5.82;76.75;99877.59;1740182;82;21244;-65
2020/12/10 02:04:34;;;;;;;27.50;12.50;;;;;;;-5.87;76.73;99886.36;1740099;82;21160;-65
2020/12/10 02:07:02;;;;;;;23.52;11.00;;;;;;;-5.91;76.81;99885.17;1739959;81;21255;-65
2020/12/10 02:09:30;;;;;;;30.62;11.22;;;;;;;-5.92;76.85;99878.02;1740147;81;21176;-65
2020/12/10 02:11:59;;;;;;;29.77;12.73;;;;;;;-5.93;76.91;99869.98;1740191;81;21295;-65
2020/12/10 02:14:36;;;;;;;32.10;13.98;;;;;;;-5.96;76.98;99868.45;1740074;82;21276;-65
2020/12/10 02:17:07;;;;;;;34.73;13.58;;;;;;;-5.97;76.97;99862.93;1740337;82;21588;-65
2020/12/10 02:19:35;;;;;;;33.98;13.43;;;;;;;-5.95;76.96;99863.08;1740394;82;21262;-65
2020/12/10 02:22:04;;;;;;;38.65;14.18;;;;;;;-5.99;77.05;99851.85;1740096;82;21291;-65
2020/12/10 02:24:31;;;;;;;40.33;14.73;;;;;;;-5.99;76.97;99870.70;1740067;82;21157;-66
2020/12/10 02:27:00;;;;;;;33.40;14.05;;;;;;;-6.00;77.07;99847.58;1740264;81;21121;-65
2020/12/10 02:29:28;;;;;;;31.95;13.53;;;;;;;-5.97;77.06;99833.16;1740296;82;21149;-66
2020/12/10 02:31:56;;;;;;;25.43;13.30;;;;;;;-5.98;77.05;99833.53;1740084;82;21303;-65
2020/12/10 02:34:24;;;;;;;27.25;12.82;;;;;;;-5.99;77.09;99824.20;1740067;82;21181;-65
2020/12/10 02:36:52;;;;;;;27.60;12.20;;;;;;;-6.00;77.10;99819.94;1740125;81;21146;-65
2020/12/10 02:39:20;;;;;;;25.88;12.15;;;;;;;-6.03;77.11;99818.42;1740467;81;21287;-65
2020/12/10 02:41:48;;;;;;;23.45;10.48;;;;;;;-6.06;77.21;99809.33;1740087;81;21165;-66
2020/12/10 02:44:15;;;;;;;29.23;14.03;;;;;;;-6.08;77.27;99805.82;1740374;82;21299;-66
2020/12/10 02:46:43;;;;;;;36.75;13.62;;;;;;;-6.09;77.44;99814.08;1740133;81;21133;-66
2020/12/10 02:49:11;;;;;;;27.35;13.22;;;;;;;-6.09;77.35;99815.72;1740069;82;21173;-65
2020/12/10 02:51:43;;;;;;;26.62;12.28;;;;;;;-6.13;77.50;99819.56;1740165;82;21275;-66
2020/12/10 02:54:12;;;;;;;32.42;15.45;;;;;;;-6.14;77.60;99811.53;1740078;81;21161;-65
2020/12/10 02:56:39;;;;;;;26.17;13.65;;;;;;;-6.13;77.74;99807.00;1740136;81;21133;-66
2020/12/10 02:59:07;;;;;;;23.55;11.97;;;;;;;-6.10;77.66;99831.55;1740034;82;21278;-65
2020/12/10 03:01:35;;;;;;;32.63;15.95;;;;;;;-6.13;77.72;99815.45;1740331;82;21157;-66
2020/12/10 03:04:04;;;;;;;28.57;12.95;;;;;;;-6.19;77.84;99814.00;1740030;81;21161;-65
2020/12/10 03:06:32;;;;;;;28.90;12.43;;;;;;;-6.22;78.08;99813.73;1738456;81;21318;-66
2020/12/10 03:08:59;;;;;;;26.02;12.43;;;;;;;-6.21;78.17;99806.31;1736107;83;21291;-66
2020/12/10 03:11:27;;;;;;;27.02;12.03;;;;;;;-6.20;78.29;99821.92;1736114;83;21307;-66
2020/12/10 03:13:55;;;;;;;25.55;12.98;;;;;;;-6.14;78.22;99812.78;1736208;83;21287;-66
2020/12/10 03:16:23;;;;;;;20.50;10.03;;;;;;;-6.12;78.06;99813.44;1736080;83;21129;-66
2020/12/10 03:18:51;;;;;;;26.93;12.50;;;;;;;-6.14;78.15;99817.81;1736196;83;21279;-65
2020/12/10 03:21:18;;;;;;;25.92;11.43;;;;;;;-6.15;78.22;99813.55;1736423;83;21127;-65
2020/12/10 03:23:46;;;;;;;30.60;13.53;;;;;;;-6.19;78.32;99826.56;1736299;83;21152;-65
2020/12/10 03:26:14;;;;;;;24.07;11.55;;;;;;;-6.21;78.41;99815.48;1736039;83;21548;-65
2020/12/10 03:28:42;;;;;;;25.25;12.23;;;;;;;-6.21;78.51;99815.48;1736075;83;21298;-65
2020/12/10 03:31:09;;;;;;;29.95;13.13;;;;;;;-6.25;78.58;99813.47;1736252;83;21140;-66
2020/12/10 03:33:37;;;;;;;26.93;13.05;;;;;;;-6.29;78.68;99812.28;1736387;83;21160;-65
2020/12/10 03:36:04;;;;;;;28.05;11.70;;;;;;;-6.29;78.80;99810.16;1736092;83;21302;-65
2020/12/10 03:38:32;;;;;;;27.90;12.63;;;;;;;-6.28;78.75;99804.02;1736309;83;21579;-66
2020/12/10 03:41:00;;;;;;;30.48;11.93;;;;;;;-6.25;78.72;99792.12;1736079;83;21168;-66
2020/12/10 03:43:28;;;;;;;29.55;12.20;;;;;;;-6.25;78.80;99790.48;1736106;83;21168;-65
2020/12/10 03:45:56;;;;;;;24.72;11.70;;;;;;;-6.29;78.91;99790.94;1736323;83;21153;-65
2020/12/10 03:48:24;;;;;;;28.27;12.45;;;;;;;-6.30;79.05;99785.41;1736075;83;21291;-65
2020/12/10 03:50:52;;;;;;;23.77;11.28;;;;;;;-6.32;79.09;99777.23;1736390;83;21299;-65
2020/12/10 03:53:19;;;;;;;30.25;12.88;;;;;;;-6.27;79.04;99791.09;1736612;83;21264;-65
2020/12/10 03:55:47;;;;;;;25.65;12.05;;;;;;;-6.28;79.09;99778.00;1736616;83;21276;-69
2020/12/10 03:58:15;;;;;;;28.02;11.60;;;;;;;-6.25;79.08;99780.81;1736113;83;21216;-65
2020/12/10 04:00:42;;;;;;;24.65;10.75;;;;;;;-6.26;79.10;99758.94;1736200;83;21156;-65
2020/12/10 04:03:12;;;;;;;23.05;11.73;;;;;;;-6.27;79.17;99754.67;1736121;83;21156;-66
2020/12/10 04:05:40;;;;;;;33.20;12.75;;;;;;;-6.31;79.22;99767.69;1736024;83;21290;-65
2020/12/10 04:08:08;;;;;;;27.55;12.15;;;;;;;-6.31;79.24;99748.84;1736203;81;21184;-65
2020/12/10 04:10:35;;;;;;;22.95;10.80;;;;;;;-6.36;79.36;99754.71;1736383;83;21173;-65
2020/12/10 04:13:03;;;;;;;22.77;10.13;;;;;;;-6.37;79.38;99756.34;1736185;83;21176;-65
2020/12/10 04:15:31;;;;;;;24.55;11.08;;;;;;;-6.38;79.54;99747.06;1736206;83;21141;-66
2020/12/10 04:17:58;;;;;;;27.82;11.18;;;;;;;-6.38;79.58;99748.70;1736054;83;21158;-66
2020/12/10 04:20:26;;;;;;;31.48;14.40;;;;;;;-6.35;79.69;99738.91;1736249;83;21168;-66
2020/12/10 04:22:55;;;;;;;30.10;14.55;;;;;;;-6.26;79.66;99745.12;1736168;83;21282;-65
2020/12/10 04:25:22;;;;;;;32.33;12.58;;;;;;;-6.21;79.46;99751.05;1736097;83;21121;-65
2020/12/10 04:27:50;;;;;;;29.20;11.88;;;;;;;-6.18;79.39;99751.35;1736050;83;21189;-65
2020/12/10 04:30:21;;;;;;;32.88;13.25;;;;;;;-6.16;79.31;99753.60;1736290;83;21247;-65
2020/12/10 04:32:49;;;;;;;30.02;14.50;;;;;;;-6.14;79.32;99748.73;1736268;83;21251;-65
2020/12/10 04:35:18;;;;;;;28.25;12.35;;;;;;;-6.06;79.13;99743.13;1736042;83;21141;-65
2020/12/10 04:37:46;;;;;;;29.12;14.50;;;;;;;-6.00;78.99;99744.94;1736117;83;21295;-66
2020/12/10 04:40:14;;;;;;;26.42;13.40;;;;;;;-5.98;78.90;99744.33;1736066;83;21315;-66
2020/12/10 04:42:44;;;;;;;29.18;12.60;;;;;;;-6.04;78.85;99757.59;1736211;83;21315;-66
2020/12/10 04:45:12;;;;;;;26.97;12.33;;;;;;;-6.03;78.99;99760.62;1736097;83;21121;-66
2020/12/10 04:47:41;;;;;;;23.20;11.12;;;;;;;-6.00;78.92;99751.22;1736097;83;21355;-66
2020/12/10 04:50:22;;;;;;;27.30;11.75;;;;;;;-5.99;78.96;99747.57;1736127;83;21312;-65
2020/12/10 04:52:41;;;;;;;;;;;;;;;-6.01;79.00;99750.31;1737294;83;21137;-65
2020/12/10 04:55:08;;;;;;;28.70;12.78;;;;;;;-6.08;79.11;99748.03;1736038;83;20249;-65
2020/12/10 04:57:38;;;;;;;21.95;10.72;;;;;;;-6.07;79.27;99740.99;1736210;83;21520;-66
2020/12/10 05:00:07;;;;;;;25.75;11.85;;;;;;;-6.07;79.31;99739.73;1736151;83;21282;-65
2020/12/10 05:02:35;;;;;;;34.15;13.70;;;;;;;-6.04;79.47;99736.61;1736207;83;21141;-65
2020/12/10 05:05:26;;;;;;;30.80;13.80;;;;;;;-6.00;79.48;99733.25;1736090;83;21156;-66
2020/12/10 05:07:57;;;;;;;30.35;13.65;;;;;;;-5.90;79.38;99734.53;1723936;81;21256;-65
2020/12/10 05:10:26;;;;;;;38.02;16.23;;;;;;;-5.90;79.20;99736.17;1693730;83;21632;-66
2020/12/10 05:13:10;;;;;;;29.67;14.25;;;;;;;-5.86;79.39;99738.19;1736184;83;21125;-65
2020/12/10 05:15:39;;;;;;;36.42;15.45;;;;;;;-5.79;79.49;99730.82;1732780;83;21176;-66
2020/12/10 05:18:10;;;;;;;32.78;14.58;;;;;;;-5.80;79.46;99732.45;1736219;83;21133;-66
2020/12/10 05:20:50;;;;;;;43.48;18.73;;;;;;;-5.75;79.55;99730.31;1736614;83;21335;-66
2020/12/10 05:23:38;;;;;;;30.88;12.68;;;;;;;-5.69;79.50;99734.64;1736293;83;21160;-65
2020/12/10 05:26:08;;;;;;;32.95;13.90;;;;;;;-5.66;79.21;99746.21;1736220;83;21600;-66
2020/12/10 05:28:50;;;;;;;29.48;13.38;;;;;;;-5.70;79.27;99751.70;1736206;83;21133;-65
2020/12/10 05:31:21;;;;;;;27.65;12.70;;;;;;;-5.75;79.39;99756.71;1736443;83;21306;-65
2020/12/10 05:34:00;;;;;;;30.95;13.68;;;;;;;-5.80;79.64;99755.42;1736170;83;21152;-65
2020/12/10 05:36:31;;;;;;;30.00;13.15;;;;;;;-5.82;79.63;99771.65;1736176;83;21271;-65
2020/12/10 05:39:08;;;;;;;31.40;14.30;;;;;;;-5.86;79.81;99762.45;1736559;83;21694;-65
2020/12/10 05:41:39;;;;;;;20.70;10.43;;;;;;;-5.91;80.02;99759.14;1736426;83;21161;-66
2020/12/10 05:44:20;;;;;;;24.15;11.63;;;;;;;-5.90;80.21;99764.69;1736372;83;21159;-65
2020/12/10 05:46:51;;;;;;;35.83;13.67;;;;;;;-5.92;80.35;99766.18;1736039;83;21197;-66
2020/12/10 05:49:19;;;;;;;29.02;14.00;;;;;;;-5.93;80.59;99760.66;1736518;83;21700;-65
2020/12/10 05:51:49;;;;;;;29.42;12.98;;;;;;;-5.86;80.74;99754.91;1736120;83;21160;-66
2020/12/10 05:54:19;;;;;;;26.15;14.23;;;;;;;-5.79;80.52;99757.21;1736306;83;21306;-65
2020/12/10 05:57:01;;;;;;;31.40;14.55;;;;;;;-5.74;80.74;99755.98;1736340;83;21991;-65
2020/12/10 05:59:30;;;;;;;;;;;;;;;-5.61;80.80;99762.96;1738626;83;21377;-65
2020/12/10 06:02:01;;;;;;;31.55;13.65;;;;;;;-5.56;80.64;99760.47;1736429;82;20186;-65
2020/12/10 06:04:30;;;;;;;;;;;;;;;-5.52;80.61;99758.36;1738848;83;21705;-65
2020/12/10 06:07:00;;;;;;;28.17;12.88;;;;;;;-5.53;81.06;99769.15;1736868;81;20249;-65
2020/12/10 06:09:28;;;;;;;34.03;15.20;;;;;;;-5.49;81.06;99754.84;1740016;81;21180;-65
2020/12/10 06:12:05;;;;;;;33.85;15.20;;;;;;;-5.45;81.09;99754.34;1740114;81;21149;-66
2020/12/10 06:14:52;;;;;;;32.10;15.13;;;;;;;-5.42;81.65;99754.10;1740203;81;21303;-66
2020/12/10 06:17:20;;;;;;;45.25;17.98;;;;;;;-5.39;82.17;99750.59;1740265;81;21326;-65
2020/12/10 06:19:48;;;;;;;45.20;19.48;;;;;;;-5.31;82.37;99747.13;1740195;82;21180;-65
2020/12/10 06:22:29;;;;;;;42.98;17.87;;;;;;;-5.22;82.48;99745.38;1740313;82;21153;-65
2020/12/10 06:25:02;;;;;;;40.20;18.10;;;;;;;-5.16;83.07;99740.88;1740260;82;21299;-66
2020/12/10 06:27:33;;;;;;;39.15;17.82;;;;;;;-5.10;83.24;99727.55;1740293;82;21567;-65
2020/12/10 06:30:32;;;;;;;37.20;17.52;;;;;;;-5.07;83.48;99728.18;1740317;81;21152;-65
2020/12/10 06:33:00;;;;;;;47.08;21.12;;;;;;;-5.07;83.57;99726.54;1709252;84;21216;-66
2020/12/10 06:35:34;;;;;;;39.78;17.55;;;;;;;-4.99;83.59;99725.92;1709278;83;21133;-65
2020/12/10 06:38:07;;;;;;;39.65;19.55;;;;;;;-4.92;83.70;99728.59;1709153;84;21189;-65
2020/12/10 06:40:41;;;;;;;42.50;20.20;;;;;;;-4.88;83.53;99739.44;1709411;83;21682;-67
2020/12/10 06:43:10;;;;;;;38.30;18.17;;;;;;;-4.81;83.29;99715.25;1709150;84;21169;-66
2020/12/10 06:45:41;;;;;;;41.35;19.80;;;;;;;-4.76;82.98;99727.84;1709210;84;21327;-67
2020/12/10 06:48:11;;;;;;;;;;;;;;;-4.75;82.47;99724.97;1711690;83;21623;-67
2020/12/10 06:50:40;;;;;;;50.03;22.22;;;;;;;-4.79;82.44;99715.01;1709114;84;20261;-67
2020/12/10 06:53:22;;;;;;;32.45;14.78;;;;;;;-4.79;82.52;99711.23;1709145;84;21231;-67
2020/12/10 06:56:09;;;;;;;51.80;20.57;;;;;;;-4.80;82.59;99715.39;1675075;86;21328;-66
2020/12/10 06:58:43;;;;;;;44.48;20.02;;;;;;;-4.77;82.65;99713.50;1705850;83;21134;-65
2020/12/10 07:01:30;;;;;;;45.85;19.40;;;;;;;-4.70;82.64;99714.52;1706808;83;21564;-66
2020/12/10 07:07:16;;;;;;;40.98;17.40;;;;;;;-4.57;82.61;99720.58;1706755;84;21169;-66
2020/12/10 07:09:53;;;;;;;44.70;21.55;;;;;;;-4.57;82.56;99709.24;1706727;84;21149;-66
2020/12/10 07:12:35;;;;;;;49.48;21.48;;;;;;;-4.55;82.75;99711.13;1707512;84;21161;-66
2020/12/10 07:15:15;;;;;;;;;;;;;;;-4.46;82.56;99714.77;1707187;83;21125;-66
2020/12/10 07:17:50;;;;;;;46.05;21.57;;;;;;;-4.49;82.78;99718.30;1706619;84;20166;-67
2020/12/10 07:20:22;;;;;;;41.60;19.70;;;;;;;-4.50;82.94;99731.28;1706776;84;21203;-66
2020/12/10 07:22:49;;;;;;;32.90;17.30;;;;;;;-4.44;82.65;99718.30;1706798;83;21161;-67
2020/12/10 07:25:17;;;;;;;38.95;17.95;;;;;;;-4.45;82.28;99711.48;1706606;84;21296;-66
2020/12/10 07:27:47;;;;;;;46.35;18.98;;;;;;;-4.50;82.54;99718.69;1706567;84;21580;-66
2020/12/10 07:30:23;;;;;;;34.15;14.15;;;;;;;-4.53;82.53;99722.57;1706570;84;21182;-66
2020/12/10 07:33:13;;;;;;;32.50;15.90;;;;;;;-4.64;82.93;99720.05;1698222;83;21181;-66
2020/12/10 07:35:41;;;;;;;;;;;;;;;-4.67;83.39;99712.25;1728591;83;21174;-65
2020/12/10 07:38:13;;;;;;;37.50;16.95;;;;;;;-4.75;83.98;99698.16;1725996;83;20164;-64
2020/12/10 07:40:41;;;;;;;;;;;;;;;-4.74;84.10;99697.39;1728550;83;21170;-65
2020/12/10 07:43:10;;;;;;;42.15;18.50;;;;;;;-4.74;84.32;99703.68;1726170;83;20255;-64
2020/12/10 07:45:38;;;;;;;40.52;19.30;;;;;;;-4.64;84.05;99694.88;1726157;83;21318;-64
2020/12/10 07:48:06;;;;;;;45.73;19.35;;;;;;;-4.50;83.78;99701.05;1726214;83;21231;-64
2020/12/10 07:50:36;;;;;;;36.83;17.50;;;;;;;-4.26;82.92;99712.23;1725964;83;21170;-64
2020/12/10 07:53:08;;;;;;;46.02;19.32;;;;;;;-4.03;82.04;99714.08;1726090;83;21189;-64
2020/12/10 07:55:54;;;;;;;51.08;20.50;;;;;;;-3.72;81.27;99715.25;1726120;83;21198;-64
2020/12/10 07:58:51;;;;;;;39.80;17.30;;;;;;;-3.77;80.31;99711.10;1726219;83;21569;-67
2020/12/10 08:01:19;;;;;;;48.30;20.05;;;;;;;-3.98;80.46;99705.63;1668714;86;21178;-66
2020/12/10 08:03:54;;;;;;;43.17;19.15;;;;;;;-4.11;80.84;99711.72;1670223;86;21182;-66
2020/12/10 08:06:26;;;;;;;41.55;16.80;;;;;;;-4.18;81.06;99706.16;1660704;86;21350;-67
2020/12/10 08:09:02;;;;;;;51.77;19.17;;;;;;;-4.20;81.30;99692.59;1685650;83;21182;-66
2020/12/10 08:11:28;;;;;;;44.20;20.25;;;;;;;-4.11;81.38;99698.73;1720539;83;21166;-67
2020/12/10 08:14:09;;;;;;;49.80;19.95;;;;;;;-4.04;80.86;99681.20;1720790;83;21170;-67
2020/12/10 08:16:43;;;;;;;49.95;20.62;;;;;;;-4.07;80.97;99677.16;1721146;83;21166;-67
2020/12/10 08:19:20;;;;;;;42.93;19.32;;;;;;;-4.04;81.20;99678.69;1721132;83;21698;-67
2020/12/10 08:21:51;;;;;;;45.10;19.65;;;;;;;-4.08;81.24;99689.27;1720803;83;21162;-67
2020/12/10 08:24:42;;;;;;;44.35;18.50;;;;;;;-4.17;81.56;99668.88;1720981;83;21162;-66
2020/12/10 08:27:12;;;;;;;47.50;20.37;;;;;;;-4.13;81.73;99669.12;1720768;83;21171;-66
2020/12/10 08:29:42;;;;;;;44.40;20.75;;;;;;;-4.10;81.75;99664.32;1720878;83;21186;-66
2020/12/10 08:32:14;;;;;;;51.63;20.45;;;;;;;-4.11;81.93;99655.01;1716920;83;21166;-66
2020/12/10 08:34:42;;;;;;;41.50;19.30;;;;;;;-4.08;82.13;99643.91;1725523;83;21589;-67
2020/12/10 08:37:11;;;;;;;47.45;20.23;;;;;;;-3.99;81.84;99648.42;1729633;83;21279;-67
2020/12/10 08:39:40;;;;;;;44.33;21.33;;;;;;;-3.98;81.96;99653.56;1729745;83;21150;-67
2020/12/10 08:42:08;;;;;;;45.73;20.52;;;;;;;-3.97;82.08;99658.22;1729566;83;21170;-66
2020/12/10 08:44:53;;;;;;;47.80;20.40;;;;;;;-4.02;82.19;99663.28;1729760;83;21166;-66
2020/12/10 08:47:26;;;;;;;52.53;21.37;;;;;;;-4.09;82.58;99663.58;1729168;83;21193;-66
2020/12/10 08:50:23;;;;;;;40.15;18.98;;;;;;;-4.07;82.67;99657.91;1729726;83;21323;-66
2020/12/10 08:53:10;;;;;;;49.00;20.50;;;;;;;-4.08;82.64;99659.03;1729751;83;21672;-67
2020/12/10 08:55:46;;;;;;;53.30;19.20;;;;;;;-4.06;82.64;99657.52;1729705;83;21123;-67
2020/12/10 08:58:24;;;;;;;43.83;19.32;;;;;;;-4.08;82.59;99667.84;1672585;85;21614;-67
2020/12/10 09:00:54;;;;;;;40.78;18.90;;;;;;;-4.08;82.56;99661.55;1707190;84;21574;-67
2020/12/10 09:03:24;;;;;;;47.03;22.10;;;;;;;-4.01;82.58;99663.80;1707218;84;21574;-67
2020/12/10 09:05:52;;;;;;;51.53;21.15;;;;;;;-3.91;82.40;99659.98;1707103;84;21313;-67
2020/12/10 09:08:21;;;;;;;37.20;16.65;;;;;;;-3.82;82.16;99646.82;1706916;84;21514;-67
2020/12/10 09:10:49;;;;;;;63.73;24.85;;;;;;;-3.74;81.79;99652.11;1707090;84;21032;-67
2020/12/10 09:13:17;;;;;;;54.20;22.65;;;;;;;-3.78;81.25;99658.05;1706987;84;21503;-67
2020/12/10 09:15:45;;;;;;;51.88;21.85;;;;;;;-3.83;81.26;99642.94;1729535;83;21075;-66
2020/12/10 09:18:13;;;;;;;47.73;22.05;;;;;;;-3.81;81.42;99647.34;1729737;83;21031;-66
2020/12/10 09:20:41;;;;;;;49.80;24.02;;;;;;;-3.77;81.13;99644.66;1729773;83;21485;-67
2020/12/10 09:23:11;;;;;;;49.08;22.15;;;;;;;-3.80;80.97;99635.60;1729522;83;21051;-67
2020/12/10 09:25:41;;;;;;;37.33;17.15;;;;;;;-3.83;80.94;99634.98;1729456;83;21023;-67
2020/12/10 09:28:09;;;;;;;48.28;19.25;;;;;;;-3.89;80.84;99666.03;1729638;83;21051;-67
2020/12/10 09:30:38;;;;;;;50.20;20.50;;;;;;;-3.96;81.11;99631.02;1729475;83;21188;-67
2020/12/10 09:33:08;;;;;;;39.63;19.07;;;;;;;-4.00;81.22;99631.52;1729756;83;21116;-67
2020/12/10 09:35:36;;;;;;;52.45;23.27;;;;;;;-4.04;81.29;99634.19;1722963;83;21809;-67
2020/12/10 09:38:05;;;;;;;49.85;22.35;;;;;;;-4.00;81.39;99631.52;1721114;83;21059;-66
2020/12/10 09:40:33;;;;;;;64.72;25.25;;;;;;;-3.84;81.21;99628.20;1720929;83;21067;-66
2020/12/10 09:43:01;;;;;;;54.30;21.77;;;;;;;-3.74;80.78;99626.89;1721011;83;21577;-66
2020/12/10 09:45:29;;;;;;;46.92;21.75;;;;;;;-3.56;80.82;99637.88;1720916;83;21058;-66
2020/12/10 09:47:58;;;;;;;44.00;21.07;;;;;;;-3.64;80.21;99653.67;1720944;83;21028;-66
2020/12/10 09:50:36;;;;;;;49.53;22.70;;;;;;;-3.77;80.42;99654.36;1720899;83;21126;-66
2020/12/10 09:53:12;;;;;;;48.13;20.15;;;;;;;-3.75;80.60;99646.55;1720159;83;21651;-67
2020/12/10 09:58:07;;;;;;;55.55;23.73;;;;;;;-3.76;80.75;99630.92;1720863;83;21067;-67
2020/12/10 10:00:35;;;;;;;49.20;21.57;;;;;;;-3.76;81.01;99618.31;1720974;83;21051;-67
2020/12/10 10:03:07;;;;;;;54.98;24.40;;;;;;;-3.69;80.85;99626.34;1721104;83;21466;-66
2020/12/10 10:05:36;;;;;;;55.85;25.43;;;;;;;-3.64;80.94;99621.27;1719114;83;21084;-66
2020/12/10 10:08:04;;;;;;;46.95;23.60;;;;;;;-3.66;80.88;99619.01;1720822;83;21055;-66
2020/12/10 10:10:31;;;;;;;61.08;27.13;;;;;;;-3.69;81.16;99617.52;1721108;83;21079;-67
2020/12/10 10:12:59;;;;;;;55.95;24.50;;;;;;;-3.73;81.69;99615.16;1721657;83;21275;-66
2020/12/10 10:15:26;;;;;;;53.40;26.40;;;;;;;-3.68;81.68;99607.56;1721273;83;21477;-66
2020/12/10 10:17:54;;;;;;;47.33;22.80;;;;;;;-3.65;81.97;99615.36;1721080;83;21047;-66
2020/12/10 10:20:22;;;;;;;49.25;24.18;;;;;;;-3.64;82.09;99618.75;1721046;83;21035;-66
2020/12/10 10:22:50;;;;;;;41.20;19.82;;;;;;;-3.71;82.59;99625.86;1720929;83;21485;-66
2020/12/10 10:25:17;;;;;;;48.52;23.12;;;;;;;-3.73;82.79;99619.81;1721083;83;21078;-67
2020/12/10 10:27:46;;;;;;;49.10;22.37;;;;;;;-3.74;82.88;99592.84;1721041;83;21141;-66
2020/12/10 10:30:14;;;;;;;48.75;22.35;;;;;;;-3.74;83.11;99602.93;1721121;83;21482;-66
2020/12/10 10:32:41;;;;;;;51.25;21.90;;;;;;;-3.68;83.13;99587.38;1720870;83;21117;-67
2020/12/10 10:35:09;;;;;;;45.23;20.72;;;;;;;-3.61;83.07;99598.80;1710608;83;21087;-66
2020/12/10 10:37:37;;;;;;;50.52;21.93;;;;;;;-3.63;83.13;99594.05;1719267;83;21058;-67
2020/12/10 10:40:04;;;;;;;51.65;21.60;;;;;;;-3.67;83.34;99604.65;1719528;82;21047;-66
2020/12/10 10:42:33;;;;;;;46.37;19.37;;;;;;;-3.71;83.50;99581.72;1719505;83;21126;-67
2020/12/10 10:45:01;;;;;;;53.25;23.52;;;;;;;-3.71;83.56;99583.38;1719682;83;21478;-67
2020/12/10 10:47:30;;;;;;;45.23;22.20;;;;;;;-3.73;83.78;99592.06;1719278;83;21075;-66
2020/12/10 10:49:57;;;;;;;48.08;22.37;;;;;;;-3.72;83.76;99592.55;1719306;83;21198;-67
2020/12/10 10:52:25;;;;;;;48.80;22.52;;;;;;;-3.75;83.80;99599.02;1719679;83;21043;-66
2020/12/10 10:54:53;;;;;;;49.05;21.70;;;;;;;-3.75;83.92;99593.58;1719489;83;21095;-67
2020/12/10 10:57:20;;;;;;;39.90;20.48;;;;;;;-3.77;84.15;99580.36;1719497;83;21478;-66
2020/12/10 10:59:48;;;;;;;55.45;23.65;;;;;;;-3.75;84.17;99594.84;1719339;82;21071;-67
2020/12/10 11:02:16;;;;;;;47.65;22.07;;;;;;;-3.71;84.13;99593.45;1719406;83;21050;-67
2020/12/10 11:04:44;;;;;;;48.55;22.73;;;;;;;-3.66;84.02;99592.52;1719282;83;21101;-67
2020/12/10 11:07:12;;;;;;;54.05;23.57;;;;;;;-3.63;83.94;99585.22;1719709;83;21059;-66
2020/12/10 11:09:41;;;;;;;48.08;22.95;;;;;;;-3.60;83.93;99627.06;1719705;82;21051;-67
2020/12/10 11:12:09;;;;;;;44.90;20.82;;;;;;;-3.63;83.98;99602.88;1719467;83;21194;-66
2020/12/10 11:14:40;;;;;;;49.73;22.10;;;;;;;-3.65;84.21;99591.78;1719259;82;21083;-66
2020/12/10 11:17:08;;;;;;;49.53;23.12;;;;;;;-3.74;84.54;99619.33;1719487;83;21500;-66
2020/12/10 11:19:36;;;;;;;50.80;21.70;;;;;;;-3.77;84.80;99619.06;1719302;83;21149;-67
2020/12/10 11:22:03;;;;;;;54.70;23.83;;;;;;;-3.77;85.06;99596.75;1719465;83;21218;-66
2020/12/10 11:24:31;;;;;;;47.23;22.52;;;;;;;-3.85;85.51;99603.72;1719472;83;21466;-66
2020/12/10 11:26:59;;;;;;;54.05;24.75;;;;;;;-3.88;85.78;99606.02;1719456;83;21237;-67
2020/12/10 11:29:27;;;;;;;49.63;23.42;;;;;;;-3.90;86.14;99603.75;1719431;83;21079;-67
2020/12/10 11:31:55;;;;;;;61.18;27.95;;;;;;;-3.93;86.44;99580.82;1719538;83;21457;-67
2020/12/10 11:34:23;;;;;;;55.73;22.48;;;;;;;-3.93;86.62;99598.09;1719251;83;21200;-67
2020/12/10 11:36:52;;;;;;;56.75;25.57;;;;;;;-3.94;86.96;99591.69;1726127;83;21091;-67
2020/12/10 11:39:20;;;;;;;56.90;25.85;;;;;;;-3.98;87.31;99570.77;1726384;83;21070;-67